Time,TemperatureF,DewpointF,PressureIn,WindDirection,WindDirectionDegrees,WindSpeedMPH,WindSpeedGustMPH,Humidity,HourlyPrecipIn,Conditions,Clouds,dailyrainin,SoftwareType,DateUTC
2013-03-21 00:09:00,37.8,19.0,30.11,North,350,5.0,-999.0,46,-99.99,,,0.00,weatherlink.com 1.10,2013-03-21 05:09:00,
2013-03-21 00:24:00,37.6,18.0,30.11,North,350,0.0,-999.0,46,-99.99,,,0.00,weatherlink.com 1.10,2013-03-21 05:24:00,
2013-03-21 00:39:00,37.3,19.0,30.12,North,350,0.0,-999.0,48,-99.99,,,0.00,weatherlink.com 1.10,2013-03-21 05:39:00,
2013-03-21 00:54:00,36.8,18.0,30.11,North,350,0.0,-999.0,47,-99.99,,,0.00,weatherlink.com 1.10,2013-03-21 05:54:00,
2013-03-21 01:09:00,36.4,18.0,30.11,North,350,0.0,-999.0,48,-99.99,,,0.00,weatherlink.com 1.10,2013-03-21 06:09:00,
2013-03-21 01:24:00,36.6,17.0,30.10,North,350,6.0,-999.0,45,-99.99,,,0.00,weatherlink.com 1.10,2013-03-21 06:24:00,
2013-03-21 01:39:00,36.4,17.0,30.10,North,350,0.0,-999.0,45,-99.99,,,0.00,weatherlink.com 1.10,2013-03-21 06:39:00,
2013-03-21 01:54:00,36.3,17.0,30.09,North,350,1.0,-999.0,46,-99.99,,,0.00,weatherlink.com 1.10,2013-03-21 06:54:00,
2013-03-21 02:09:00,36.3,17.0,30.09,North,350,5.0,-999.0,45,-99.99,,,0.00,weatherlink.com 1.10,2013-03-21 07:09:00,
2013-03-21 02:24:00,36.3,17.0,30.09,North,350,0.0,-999.0,46,-99.99,,,0.00,weatherlink.com 1.10,2013-03-21 07:24:00,
2013-03-21 02:39:00,36.2,18.0,30.08,North,355,0.0,-999.0,48,-99.99,,,0.00,weatherlink.com 1.10,2013-03-21 07:39:00,
2013-03-21 02:54:00,35.5,17.0,30.08,NNE,17,6.0,-999.0,48,-99.99,,,0.00,weatherlink.com 1.10,2013-03-21 07:54:00,
2013-03-21 03:09:00,34.8,18.0,30.06,ENE,59,8.0,-999.0,50,-99.99,,,0.00,weatherlink.com 1.10,2013-03-21 08:09:00,
2013-03-21 03:24:00,34.2,16.0,30.06,ENE,70,5.0,-999.0,47,-99.99,,,0.00,weatherlink.com 1.10,2013-03-21 08:24:00,
2013-03-21 03:39:00,34.4,15.0,30.06,ENE,74,5.0,-999.0,46,-99.99,,,0.00,weatherlink.com 1.10,2013-03-21 08:39:00,
2013-03-21 03:54:00,34.0,16.0,30.06,ENE,77,7.0,-999.0,47,-99.99,,,0.00,weatherlink.com 1.10,2013-03-21 08:54:00,
2013-03-21 04:09:00,33.9,16.0,30.05,East,84,8.0,-999.0,49,-99.99,,,0.00,weatherlink.com 1.10,2013-03-21 09:09:00,
2013-03-21 04:24:00,33.5,17.0,30.05,East,86,5.0,-999.0,50,-99.99,,,0.00,weatherlink.com 1.10,2013-03-21 09:24:00,
2013-03-21 04:39:00,32.9,19.0,30.05,East,100,6.0,-999.0,57,-99.99,,,0.00,weatherlink.com 1.10,2013-03-21 09:39:00,
2013-03-21 04:54:00,32.2,18.0,30.04,East,101,7.0,-999.0,55,-99.99,,,0.00,weatherlink.com 1.10,2013-03-21 09:54:00,
2013-03-21 05:09:00,31.9,16.0,30.04,ESE,102,11.0,-999.0,53,-99.99,,,0.00,weatherlink.com 1.10,2013-03-21 10:09:00,
2013-03-21 05:24:00,30.7,16.0,30.03,ESE,109,7.0,-999.0,55,-99.99,,,0.00,weatherlink.com 1.10,2013-03-21 10:24:00,
2013-03-21 05:39:00,30.5,16.0,30.04,ESE,115,9.0,-999.0,55,-99.99,,,0.00,weatherlink.com 1.10,2013-03-21 10:39:00,
2013-03-21 05:54:00,30.4,16.0,30.04,East,90,6.0,-999.0,55,-99.99,,,0.00,weatherlink.com 1.10,2013-03-21 10:54:00,
2013-03-21 06:09:00,30.4,15.0,30.04,East,99,11.0,-999.0,54,-99.99,,,0.00,weatherlink.com 1.10,2013-03-21 11:09:00,
2013-03-21 06:24:00,30.4,15.0,30.04,ENE,77,12.0,-999.0,52,-99.99,,,0.00,weatherlink.com 1.10,2013-03-21 11:24:00,
2013-03-21 06:39:00,30.3,14.0,30.05,East,84,12.0,-999.0,51,-99.99,,,0.00,weatherlink.com 1.10,2013-03-21 11:39:00,
2013-03-21 06:54:00,30.3,14.0,30.05,East,92,14.0,-999.0,51,-99.99,,,0.00,weatherlink.com 1.10,2013-03-21 11:54:00,
2013-03-21 07:09:00,30.1,15.0,30.05,ESE,103,15.0,-999.0,53,-99.99,,,0.00,weatherlink.com 1.10,2013-03-21 12:09:00,
2013-03-21 07:24:00,29.8,15.0,30.05,East,86,13.0,-999.0,54,-99.99,,,0.00,weatherlink.com 1.10,2013-03-21 12:24:00,
2013-03-21 07:39:00,29.7,15.0,30.05,East,89,11.0,-999.0,54,-99.99,,,0.00,weatherlink.com 1.10,2013-03-21 12:39:00,
2013-03-21 07:54:00,29.5,14.0,30.05,East,92,13.0,-999.0,52,-99.99,,,0.00,weatherlink.com 1.10,2013-03-21 12:54:00,
2013-03-21 08:09:00,29.4,14.0,30.06,East,86,14.0,-999.0,52,-99.99,,,0.00,weatherlink.com 1.10,2013-03-21 13:09:00,
2013-03-21 08:24:00,29.4,14.0,30.05,East,88,15.0,-999.0,52,-99.99,,,0.00,weatherlink.com 1.10,2013-03-21 13:24:00,
2013-03-21 08:39:00,29.5,14.0,30.05,East,83,18.0,-999.0,52,-99.99,,,0.00,weatherlink.com 1.10,2013-03-21 13:39:00,
2013-03-21 08:54:00,30.2,15.0,30.05,ESE,103,6.0,-999.0,53,-99.99,,,0.00,weatherlink.com 1.10,2013-03-21 13:54:00,
2013-03-21 09:09:00,31.5,16.0,30.05,East,85,12.0,-999.0,53,-99.99,,,0.00,weatherlink.com 1.10,2013-03-21 14:09:00,
2013-03-21 09:24:00,31.8,14.0,30.05,ESE,103,14.0,-999.0,47,-99.99,,,0.00,weatherlink.com 1.10,2013-03-21 14:24:00,
2013-03-21 09:39:00,32.0,14.0,30.04,East,96,12.0,-999.0,48,-99.99,,,0.00,weatherlink.com 1.10,2013-03-21 14:39:00,
2013-03-21 09:54:00,32.0,14.0,30.04,ESE,103,14.0,-999.0,47,-99.99,,,0.00,weatherlink.com 1.10,2013-03-21 14:54:00,
2013-03-21 10:09:00,32.3,13.0,30.04,NE,55,17.0,-999.0,45,-99.99,,,0.00,weatherlink.com 1.10,2013-03-21 15:09:00,
2013-03-21 10:24:00,32.6,14.0,30.05,East,94,13.0,-999.0,47,-99.99,,,0.00,weatherlink.com 1.10,2013-03-21 15:24:00,
2013-03-21 10:39:00,33.4,15.0,30.04,East,90,13.0,-999.0,46,-99.99,,,0.00,weatherlink.com 1.10,2013-03-21 15:39:00,
2013-03-21 10:54:00,34.2,16.0,30.03,ENE,78,12.0,-999.0,47,-99.99,,,0.00,weatherlink.com 1.10,2013-03-21 15:54:00,
2013-03-21 11:09:00,34.4,15.0,30.03,ENE,73,24.0,-999.0,46,-99.99,,,0.00,weatherlink.com 1.10,2013-03-21 16:09:00,
2013-03-21 11:24:00,34.1,16.0,30.02,East,82,14.0,-999.0,47,-99.99,,,0.00,weatherlink.com 1.10,2013-03-21 16:24:00,
2013-03-21 11:39:00,34.5,16.0,30.02,East,90,14.0,-999.0,46,-99.99,,,0.00,weatherlink.com 1.10,2013-03-21 16:39:00,
2013-03-21 11:54:00,35.3,16.0,30.03,East,101,9.0,-999.0,46,-99.99,,,0.00,weatherlink.com 1.10,2013-03-21 16:54:00,
2013-03-21 12:09:00,36.5,17.0,30.03,ESE,121,1.0,-999.0,45,-99.99,,,0.00,weatherlink.com 1.10,2013-03-21 17:09:00,
2013-03-21 12:24:00,37.9,17.0,30.03,SE,142,4.0,-999.0,42,-99.99,,,0.00,weatherlink.com 1.10,2013-03-21 17:24:00,
2013-03-21 12:39:00,37.9,17.0,30.01,East,97,19.0,-999.0,42,-99.99,,,0.00,weatherlink.com 1.10,2013-03-21 17:39:00,
2013-03-21 12:54:00,37.3,16.0,30.00,East,80,10.0,-999.0,42,-99.99,,,0.00,weatherlink.com 1.10,2013-03-21 17:54:00,
2013-03-21 13:09:00,36.7,16.0,29.99,East,87,14.0,-999.0,43,-99.99,,,0.00,weatherlink.com 1.10,2013-03-21 18:09:00,
2013-03-21 13:24:00,36.6,17.0,29.98,East,79,13.0,-999.0,45,-99.99,,,0.00,weatherlink.com 1.10,2013-03-21 18:24:00,
2013-03-21 13:39:00,36.6,17.0,29.96,East,87,8.0,-999.0,46,-99.99,,,0.00,weatherlink.com 1.10,2013-03-21 18:39:00,
2013-03-21 13:54:00,35.8,20.0,29.95,East,88,15.0,-999.0,53,-99.99,,,0.00,weatherlink.com 1.10,2013-03-21 18:54:00,
2013-03-21 14:09:00,35.7,19.0,29.95,ESE,105,15.0,-999.0,52,-99.99,,,0.00,weatherlink.com 1.10,2013-03-21 19:09:00,
2013-03-21 14:39:00,35.9,20.0,29.95,East,83,8.0,-999.0,52,-99.99,,,0.00,weatherlink.com 1.10,2013-03-21 19:39:00,
2013-03-21 14:54:00,36.2,20.0,29.95,East,82,14.0,-999.0,53,-99.99,,,0.00,weatherlink.com 1.10,2013-03-21 19:54:00,
2013-03-21 15:09:00,36.2,20.0,29.94,East,95,12.0,-999.0,53,-99.99,,,0.00,weatherlink.com 1.10,2013-03-21 20:09:00,
2013-03-21 15:24:00,36.5,21.0,29.93,East,88,15.0,-999.0,53,-99.99,,,0.00,weatherlink.com 1.10,2013-03-21 20:24:00,
2013-03-21 15:39:00,36.4,22.0,29.91,ENE,78,17.0,-999.0,56,-99.99,,,0.00,weatherlink.com 1.10,2013-03-21 20:39:00,
2013-03-21 15:54:00,36.1,23.0,29.91,ESE,110,6.0,-999.0,59,-99.99,,,0.00,weatherlink.com 1.10,2013-03-21 20:54:00,
2013-03-21 16:09:00,35.7,24.0,29.91,ESE,111,2.0,-999.0,63,-99.99,,,0.00,weatherlink.com 1.10,2013-03-21 21:09:00,
2013-03-21 16:24:00,35.0,25.0,29.90,East,100,9.0,-999.0,68,-99.99,,,0.00,weatherlink.com 1.10,2013-03-21 21:24:00,
2013-03-21 16:39:00,34.3,26.0,29.89,ENE,74,19.0,-999.0,73,-99.99,,,0.00,weatherlink.com 1.10,2013-03-21 21:39:00,
2013-03-21 16:54:00,33.4,27.0,29.89,East,84,11.0,-999.0,78,-99.99,,,0.00,weatherlink.com 1.10,2013-03-21 21:54:00,
2013-03-21 17:09:00,32.5,26.0,29.89,East,86,10.0,-999.0,76,-99.99,,,0.00,weatherlink.com 1.10,2013-03-21 22:09:00,
2013-03-21 17:24:00,32.0,23.0,29.88,East,93,15.0,-999.0,70,-99.99,,,0.00,weatherlink.com 1.10,2013-03-21 22:24:00,
2013-03-21 17:39:00,31.8,23.0,29.86,East,101,14.0,-999.0,69,-99.99,,,0.00,weatherlink.com 1.10,2013-03-21 22:39:00,
2013-03-21 17:54:00,31.9,22.0,29.89,East,81,6.0,-999.0,68,-99.99,,,0.00,weatherlink.com 1.10,2013-03-21 22:54:00,
2013-03-21 18:09:00,31.8,22.0,29.87,ENE,76,10.0,-999.0,68,-99.99,,,0.00,weatherlink.com 1.10,2013-03-21 23:09:00,
2013-03-21 18:24:00,31.5,22.0,29.89,East,80,7.0,-999.0,69,-99.99,,,0.00,weatherlink.com 1.10,2013-03-21 23:24:00,
2013-03-21 18:39:00,31.2,22.0,29.87,East,80,15.0,-999.0,69,-99.99,,,0.00,weatherlink.com 1.10,2013-03-21 23:39:00,
2013-03-21 18:54:00,31.0,22.0,29.87,East,90,0.0,-999.0,69,-99.99,,,0.00,weatherlink.com 1.10,2013-03-21 23:54:00,
2013-03-21 19:09:00,30.8,22.0,29.89,East,80,0.0,-999.0,69,-99.99,,,0.00,weatherlink.com 1.10,2013-03-22 00:09:00,
2013-03-21 19:24:00,30.6,22.0,29.88,East,84,0.0,-999.0,69,-99.99,,,0.00,weatherlink.com 1.10,2013-03-22 00:24:00,
2013-03-21 19:39:00,30.5,21.0,29.88,East,94,0.0,-999.0,69,-99.99,,,0.00,weatherlink.com 1.10,2013-03-22 00:39:00,
2013-03-21 19:54:00,30.2,22.0,29.88,East,94,0.0,-999.0,70,-99.99,,,0.00,weatherlink.com 1.10,2013-03-22 00:54:00,
2013-03-21 20:09:00,30.1,21.0,29.88,East,94,0.0,-999.0,70,-99.99,,,0.00,weatherlink.com 1.10,2013-03-22 01:09:00,
2013-03-21 20:24:00,30.2,22.0,29.88,East,94,0.0,-999.0,70,-99.99,,,0.00,weatherlink.com 1.10,2013-03-22 01:24:00,
2013-03-21 20:39:00,30.1,21.0,29.88,East,94,0.0,-999.0,70,-99.99,,,0.00,weatherlink.com 1.10,2013-03-22 01:39:00,
2013-03-21 20:54:00,30.3,22.0,29.88,East,94,0.0,-999.0,70,-99.99,,,0.00,weatherlink.com 1.10,2013-03-22 01:54:00,
2013-03-21 21:09:00,30.2,22.0,29.89,East,94,0.0,-999.0,70,-99.99,,,0.00,weatherlink.com 1.10,2013-03-22 02:09:00,
2013-03-21 21:24:00,30.3,22.0,29.89,East,94,0.0,-999.0,70,-99.99,,,0.00,weatherlink.com 1.10,2013-03-22 02:24:00,
2013-03-21 21:39:00,30.4,22.0,29.88,East,94,0.0,-999.0,70,-99.99,,,0.00,weatherlink.com 1.10,2013-03-22 02:39:00,
2013-03-21 22:09:00,30.1,21.0,29.90,East,94,0.0,-999.0,70,-99.99,,,0.00,weatherlink.com 1.10,2013-03-22 03:09:00,
2013-03-21 22:24:00,30.1,21.0,29.91,East,94,0.0,-999.0,70,-99.99,,,0.00,weatherlink.com 1.10,2013-03-22 03:24:00,
2013-03-21 22:39:00,30.0,21.0,29.90,East,94,0.0,-999.0,70,-99.99,,,0.00,weatherlink.com 1.10,2013-03-22 03:39:00,
2013-03-21 22:54:00,29.9,21.0,29.87,East,94,0.0,-999.0,70,-99.99,,,0.00,weatherlink.com 1.10,2013-03-22 03:54:00,
2013-03-21 23:09:00,29.9,21.0,29.91,East,94,0.0,-999.0,70,-99.99,,,0.00,weatherlink.com 1.10,2013-03-22 04:09:00,
2013-03-21 23:24:00,30.4,22.0,29.90,East,94,0.0,-999.0,70,-99.99,,,0.00,weatherlink.com 1.10,2013-03-22 04:24:00,
2013-03-21 23:39:00,30.0,21.0,29.89,East,94,0.0,-999.0,70,-99.99,,,0.00,weatherlink.com 1.10,2013-03-22 04:39:00,
2013-03-21 23:54:00,29.8,21.0,29.89,East,94,0.0,-999.0,70,-99.99,,,0.00,weatherlink.com 1.10,2013-03-22 04:54:00,